sensor_id;sensor_type;location;lat;lon;timestamp;temperature;humidity
14079;DHT22;7115;50.150;8.568;2023-07-24T00:00:33;21.30;99.90
14079;DHT22;7115;50.150;8.568;2023-07-24T00:03:02;21.30;99.90
14079;DHT22;7115;50.150;8.568;2023-07-24T00:05:29;21.30;99.90
14079;DHT22;7115;50.150;8.568;2023-07-24T00:07:56;21.30;99.90
14079;DHT22;7115;50.150;8.568;2023-07-24T00:10:24;21.30;99.90
14079;DHT22;7115;50.150;8.568;2023-07-24T00:12:51;21.30;99.90
14079;DHT22;7115;50.150;8.568;2023-07-24T00:15:19;21.30;99.90
14079;DHT22;7115;50.150;8.568;2023-07-24T00:17:45;21.30;99.90
14079;DHT22;7115;50.150;8.568;2023-07-24T00:20:12;21.30;99.90
14079;DHT22;7115;50.150;8.568;2023-07-24T00:22:39;21.20;99.90
14079;DHT22;7115;50.150;8.568;2023-07-24T00:25:07;21.20;99.90
14079;DHT22;7115;50.150;8.568;2023-07-24T00:27:37;21.20;99.90
14079;DHT22;7115;50.150;8.568;2023-07-24T00:30:04;21.20;99.90
14079;DHT22;7115;50.150;8.568;2023-07-24T00:32:31;21.20;99.90
14079;DHT22;7115;50.150;8.568;2023-07-24T00:34:58;21.10;99.90
14079;DHT22;7115;50.150;8.568;2023-07-24T00:37:25;21.20;99.90
14079;DHT22;7115;50.150;8.568;2023-07-24T00:39:52;21.20;99.90
14079;DHT22;7115;50.150;8.568;2023-07-24T00:42:19;21.20;99.90
14079;DHT22;7115;50.150;8.568;2023-07-24T00:44:47;21.20;99.90
14079;DHT22;7115;50.150;8.568;2023-07-24T00:47:14;21.20;99.90
14079;DHT22;7115;50.150;8.568;2023-07-24T00:49:41;21.30;99.90
14079;DHT22;7115;50.150;8.568;2023-07-24T00:52:08;21.30;99.90
14079;DHT22;7115;50.150;8.568;2023-07-24T00:54:35;21.30;99.90
14079;DHT22;7115;50.150;8.568;2023-07-24T00:57:03;21.30;99.90
14079;DHT22;7115;50.150;8.568;2023-07-24T00:59:31;21.30;99.90
14079;DHT22;7115;50.150;8.568;2023-07-24T01:02:00;21.30;99.90
14079;DHT22;7115;50.150;8.568;2023-07-24T01:04:27;21.30;99.90
14079;DHT22;7115;50.150;8.568;2023-07-24T01:06:54;21.30;99.90
14079;DHT22;7115;50.150;8.568;2023-07-24T01:09:21;21.30;99.90
14079;DHT22;7115;50.150;8.568;2023-07-24T01:11:52;21.30;99.90
14079;DHT22;7115;50.150;8.568;2023-07-24T01:14:26;21.30;99.90
14079;DHT22;7115;50.150;8.568;2023-07-24T01:16:54;21.30;99.90
14079;DHT22;7115;50.150;8.568;2023-07-24T01:19:33;21.20;99.90
14079;DHT22;7115;50.150;8.568;2023-07-24T01:22:10;21.20;99.90
14079;DHT22;7115;50.150;8.568;2023-07-24T01:24:49;21.10;99.90
14079;DHT22;7115;50.150;8.568;2023-07-24T01:27:23;21.00;99.90
14079;DHT22;7115;50.150;8.568;2023-07-24T01:29:50;21.00;99.90
14079;DHT22;7115;50.150;8.568;2023-07-24T01:32:17;20.90;99.90
14079;DHT22;7115;50.150;8.568;2023-07-24T01:34:45;20.90;99.90
14079;DHT22;7115;50.150;8.568;2023-07-24T01:37:12;20.90;99.90
14079;DHT22;7115;50.150;8.568;2023-07-24T01:39:41;20.80;99.90
14079;DHT22;7115;50.150;8.568;2023-07-24T01:42:08;20.80;99.90
14079;DHT22;7115;50.150;8.568;2023-07-24T01:44:37;20.70;99.90
14079;DHT22;7115;50.150;8.568;2023-07-24T01:47:03;20.70;99.90
14079;DHT22;7115;50.150;8.568;2023-07-24T01:49:33;20.70;99.90
14079;DHT22;7115;50.150;8.568;2023-07-24T01:52:00;20.70;99.90
14079;DHT22;7115;50.150;8.568;2023-07-24T01:54:26;20.70;99.90
14079;DHT22;7115;50.150;8.568;2023-07-24T01:56:53;20.60;99.90
14079;DHT22;7115;50.150;8.568;2023-07-24T01:59:20;20.60;99.90
14079;DHT22;7115;50.150;8.568;2023-07-24T02:01:48;20.70;99.90
14079;DHT22;7115;50.150;8.568;2023-07-24T02:04:15;20.60;99.90
14079;DHT22;7115;50.150;8.568;2023-07-24T02:06:42;20.60;99.90
14079;DHT22;7115;50.150;8.568;2023-07-24T02:09:10;20.60;99.90
14079;DHT22;7115;50.150;8.568;2023-07-24T02:11:37;20.70;99.90
14079;DHT22;7115;50.150;8.568;2023-07-24T02:14:04;20.60;99.90
14079;DHT22;7115;50.150;8.568;2023-07-24T02:16:30;20.60;99.90
14079;DHT22;7115;50.150;8.568;2023-07-24T02:18:59;20.60;99.90
14079;DHT22;7115;50.150;8.568;2023-07-24T02:21:26;20.60;99.90
14079;DHT22;7115;50.150;8.568;2023-07-24T02:23:53;20.50;99.90
14079;DHT22;7115;50.150;8.568;2023-07-24T02:26:20;20.50;99.90
14079;DHT22;7115;50.150;8.568;2023-07-24T02:28:47;20.40;99.90
14079;DHT22;7115;50.150;8.568;2023-07-24T02:31:14;20.40;99.90
14079;DHT22;7115;50.150;8.568;2023-07-24T02:33:40;20.40;99.90
14079;DHT22;7115;50.150;8.568;2023-07-24T02:36:09;20.30;99.90
14079;DHT22;7115;50.150;8.568;2023-07-24T02:38:35;20.30;99.90
14079;DHT22;7115;50.150;8.568;2023-07-24T02:41:03;20.20;99.90
14079;DHT22;7115;50.150;8.568;2023-07-24T02:43:30;20.20;99.90
14079;DHT22;7115;50.150;8.568;2023-07-24T02:46:00;20.20;99.90
14079;DHT22;7115;50.150;8.568;2023-07-24T02:48:28;20.10;99.90
14079;DHT22;7115;50.150;8.568;2023-07-24T02:50:54;20.10;99.90
14079;DHT22;7115;50.150;8.568;2023-07-24T02:53:23;20.10;99.90
14079;DHT22;7115;50.150;8.568;2023-07-24T02:55:50;20.10;99.90
14079;DHT22;7115;50.150;8.568;2023-07-24T02:58:16;20.00;99.90
14079;DHT22;7115;50.150;8.568;2023-07-24T03:00:43;20.00;99.90
14079;DHT22;7115;50.150;8.568;2023-07-24T03:03:10;20.00;99.90
14079;DHT22;7115;50.150;8.568;2023-07-24T03:05:37;20.00;99.90
14079;DHT22;7115;50.150;8.568;2023-07-24T03:08:04;20.00;99.90
14079;DHT22;7115;50.150;8.568;2023-07-24T03:10:32;19.90;99.90
14079;DHT22;7115;50.150;8.568;2023-07-24T03:12:59;19.90;99.90
14079;DHT22;7115;50.150;8.568;2023-07-24T03:15:26;19.90;99.90
14079;DHT22;7115;50.150;8.568;2023-07-24T03:17:53;19.80;99.90
14079;DHT22;7115;50.150;8.568;2023-07-24T03:20:20;19.80;99.90
14079;DHT22;7115;50.150;8.568;2023-07-24T03:22:47;19.80;99.90
14079;DHT22;7115;50.150;8.568;2023-07-24T03:25:14;19.80;99.90
14079;DHT22;7115;50.150;8.568;2023-07-24T03:27:42;19.80;99.90
14079;DHT22;7115;50.150;8.568;2023-07-24T03:30:10;19.80;99.90
14079;DHT22;7115;50.150;8.568;2023-07-24T03:32:37;19.80;99.90
14079;DHT22;7115;50.150;8.568;2023-07-24T03:35:06;19.80;99.90
14079;DHT22;7115;50.150;8.568;2023-07-24T03:37:34;19.70;99.90
14079;DHT22;7115;50.150;8.568;2023-07-24T03:40:01;19.70;99.90
14079;DHT22;7115;50.150;8.568;2023-07-24T03:42:29;19.60;99.90
14079;DHT22;7115;50.150;8.568;2023-07-24T03:44:58;19.60;99.90
14079;DHT22;7115;50.150;8.568;2023-07-24T03:47:25;19.60;99.90
14079;DHT22;7115;50.150;8.568;2023-07-24T03:49:52;19.60;99.90
14079;DHT22;7115;50.150;8.568;2023-07-24T03:52:19;19.60;99.90
14079;DHT22;7115;50.150;8.568;2023-07-24T03:54:46;19.50;99.90
14079;DHT22;7115;50.150;8.568;2023-07-24T03:57:13;19.60;99.90
14079;DHT22;7115;50.150;8.568;2023-07-24T03:59:40;19.60;99.90
14079;DHT22;7115;50.150;8.568;2023-07-24T04:02:08;19.60;99.90
14079;DHT22;7115;50.150;8.568;2023-07-24T04:04:36;19.60;99.90
14079;DHT22;7115;50.150;8.568;2023-07-24T04:07:04;19.60;99.90
14079;DHT22;7115;50.150;8.568;2023-07-24T04:09:31;19.60;99.90
14079;DHT22;7115;50.150;8.568;2023-07-24T04:11:58;19.60;99.90
14079;DHT22;7115;50.150;8.568;2023-07-24T04:14:24;19.60;99.90
14079;DHT22;7115;50.150;8.568;2023-07-24T04:16:51;19.60;99.90
14079;DHT22;7115;50.150;8.568;2023-07-24T04:19:20;19.70;99.90
14079;DHT22;7115;50.150;8.568;2023-07-24T04:21:46;19.60;99.90
14079;DHT22;7115;50.150;8.568;2023-07-24T04:24:13;19.70;99.90
14079;DHT22;7115;50.150;8.568;2023-07-24T04:26:40;19.60;99.90
14079;DHT22;7115;50.150;8.568;2023-07-24T04:29:07;19.60;99.90
14079;DHT22;7115;50.150;8.568;2023-07-24T04:31:34;19.60;99.90
14079;DHT22;7115;50.150;8.568;2023-07-24T04:34:01;19.60;99.90
14079;DHT22;7115;50.150;8.568;2023-07-24T04:36:29;19.60;99.90
14079;DHT22;7115;50.150;8.568;2023-07-24T04:38:56;19.60;99.90
14079;DHT22;7115;50.150;8.568;2023-07-24T04:41:23;19.60;99.90
14079;DHT22;7115;50.150;8.568;2023-07-24T04:43:50;19.60;99.90
14079;DHT22;7115;50.150;8.568;2023-07-24T04:46:17;19.70;99.90
14079;DHT22;7115;50.150;8.568;2023-07-24T04:48:44;19.70;99.90
14079;DHT22;7115;50.150;8.568;2023-07-24T04:51:11;19.70;99.90
14079;DHT22;7115;50.150;8.568;2023-07-24T04:53:39;19.70;99.90
14079;DHT22;7115;50.150;8.568;2023-07-24T04:56:06;19.80;99.90
14079;DHT22;7115;50.150;8.568;2023-07-24T04:58:33;19.80;99.90
14079;DHT22;7115;50.150;8.568;2023-07-24T05:01:02;19.80;99.90
14079;DHT22;7115;50.150;8.568;2023-07-24T05:03:29;19.80;99.90
14079;DHT22;7115;50.150;8.568;2023-07-24T05:05:56;19.90;99.90
14079;DHT22;7115;50.150;8.568;2023-07-24T05:08:23;19.90;99.90
14079;DHT22;7115;50.150;8.568;2023-07-24T05:10:55;19.90;99.90
14079;DHT22;7115;50.150;8.568;2023-07-24T05:13:22;20.00;99.90
14079;DHT22;7115;50.150;8.568;2023-07-24T05:15:49;20.00;99.90
14079;DHT22;7115;50.150;8.568;2023-07-24T05:18:16;20.00;99.90
14079;DHT22;7115;50.150;8.568;2023-07-24T05:20:45;20.00;99.90
14079;DHT22;7115;50.150;8.568;2023-07-24T05:23:13;20.00;99.90
14079;DHT22;7115;50.150;8.568;2023-07-24T05:25:40;20.00;99.90
14079;DHT22;7115;50.150;8.568;2023-07-24T05:28:08;20.00;99.90
14079;DHT22;7115;50.150;8.568;2023-07-24T05:30:35;20.00;99.90
14079;DHT22;7115;50.150;8.568;2023-07-24T05:33:02;20.10;99.90
14079;DHT22;7115;50.150;8.568;2023-07-24T05:35:29;20.10;99.90
14079;DHT22;7115;50.150;8.568;2023-07-24T05:37:56;20.10;99.90
14079;DHT22;7115;50.150;8.568;2023-07-24T05:40:23;20.20;99.90
14079;DHT22;7115;50.150;8.568;2023-07-24T05:42:49;20.20;99.90
14079;DHT22;7115;50.150;8.568;2023-07-24T05:45:18;20.20;99.90
14079;DHT22;7115;50.150;8.568;2023-07-24T05:47:45;20.20;99.90
14079;DHT22;7115;50.150;8.568;2023-07-24T05:50:12;20.20;99.90
14079;DHT22;7115;50.150;8.568;2023-07-24T05:52:40;20.20;99.90
14079;DHT22;7115;50.150;8.568;2023-07-24T05:55:08;20.30;99.90
14079;DHT22;7115;50.150;8.568;2023-07-24T05:57:35;20.30;99.90
14079;DHT22;7115;50.150;8.568;2023-07-24T06:00:02;20.30;99.90
14079;DHT22;7115;50.150;8.568;2023-07-24T06:02:30;20.30;99.90
14079;DHT22;7115;50.150;8.568;2023-07-24T06:04:57;20.40;99.90
14079;DHT22;7115;50.150;8.568;2023-07-24T06:07:24;20.40;99.90
14079;DHT22;7115;50.150;8.568;2023-07-24T06:09:51;20.50;99.90
14079;DHT22;7115;50.150;8.568;2023-07-24T06:12:18;20.60;99.90
14079;DHT22;7115;50.150;8.568;2023-07-24T06:14:45;20.60;99.90
14079;DHT22;7115;50.150;8.568;2023-07-24T06:17:11;20.60;99.90
14079;DHT22;7115;50.150;8.568;2023-07-24T06:19:40;20.70;99.90
14079;DHT22;7115;50.150;8.568;2023-07-24T06:22:07;20.70;99.90
14079;DHT22;7115;50.150;8.568;2023-07-24T06:24:34;20.70;99.90
14079;DHT22;7115;50.150;8.568;2023-07-24T06:27:01;20.80;99.90
14079;DHT22;7115;50.150;8.568;2023-07-24T06:29:28;20.80;99.90
14079;DHT22;7115;50.150;8.568;2023-07-24T06:31:55;20.80;99.90
14079;DHT22;7115;50.150;8.568;2023-07-24T06:34:22;20.80;99.90
14079;DHT22;7115;50.150;8.568;2023-07-24T06:36:50;20.90;99.90
14079;DHT22;7115;50.150;8.568;2023-07-24T06:39:17;21.00;99.90
14079;DHT22;7115;50.150;8.568;2023-07-24T06:41:44;21.00;99.90
14079;DHT22;7115;50.150;8.568;2023-07-24T06:44:11;21.10;99.90
14079;DHT22;7115;50.150;8.568;2023-07-24T06:46:37;21.10;99.90
14079;DHT22;7115;50.150;8.568;2023-07-24T06:49:04;21.20;99.90
14079;DHT22;7115;50.150;8.568;2023-07-24T06:51:31;21.30;99.90
14079;DHT22;7115;50.150;8.568;2023-07-24T06:53:59;21.40;99.90
14079;DHT22;7115;50.150;8.568;2023-07-24T06:56:26;21.40;99.90
14079;DHT22;7115;50.150;8.568;2023-07-24T06:58:54;21.40;99.90
14079;DHT22;7115;50.150;8.568;2023-07-24T07:01:20;21.50;99.90
14079;DHT22;7115;50.150;8.568;2023-07-24T07:03:47;21.60;99.90
14079;DHT22;7115;50.150;8.568;2023-07-24T07:06:14;21.60;99.90
14079;DHT22;7115;50.150;8.568;2023-07-24T07:08:44;21.70;99.90
14079;DHT22;7115;50.150;8.568;2023-07-24T07:11:12;21.70;99.90
14079;DHT22;7115;50.150;8.568;2023-07-24T07:13:39;21.80;99.90
14079;DHT22;7115;50.150;8.568;2023-07-24T07:16:06;21.90;99.90
14079;DHT22;7115;50.150;8.568;2023-07-24T07:18:33;22.00;99.90
14079;DHT22;7115;50.150;8.568;2023-07-24T07:21:00;22.10;99.90
14079;DHT22;7115;50.150;8.568;2023-07-24T07:23:27;22.20;99.90
14079;DHT22;7115;50.150;8.568;2023-07-24T07:25:54;22.30;99.90
14079;DHT22;7115;50.150;8.568;2023-07-24T07:28:22;22.40;99.90
14079;DHT22;7115;50.150;8.568;2023-07-24T07:30:49;22.50;99.90
14079;DHT22;7115;50.150;8.568;2023-07-24T07:33:16;22.60;99.90
14079;DHT22;7115;50.150;8.568;2023-07-24T07:35:43;22.90;99.80
14079;DHT22;7115;50.150;8.568;2023-07-24T07:38:10;22.90;99.80
14079;DHT22;7115;50.150;8.568;2023-07-24T07:40:37;22.90;99.80
14079;DHT22;7115;50.150;8.568;2023-07-24T07:43:04;22.90;99.60
14079;DHT22;7115;50.150;8.568;2023-07-24T07:45:33;23.00;99.50
14079;DHT22;7115;50.150;8.568;2023-07-24T07:48:00;23.00;99.40
14079;DHT22;7115;50.150;8.568;2023-07-24T07:50:27;23.00;99.20
14079;DHT22;7115;50.150;8.568;2023-07-24T07:52:53;23.00;99.10
14079;DHT22;7115;50.150;8.568;2023-07-24T07:55:20;22.90;99.10
14079;DHT22;7115;50.150;8.568;2023-07-24T07:57:47;22.90;99.10
14079;DHT22;7115;50.150;8.568;2023-07-24T08:00:15;22.90;99.10
14079;DHT22;7115;50.150;8.568;2023-07-24T08:02:43;22.90;99.10
14079;DHT22;7115;50.150;8.568;2023-07-24T08:05:11;22.90;99.10
14079;DHT22;7115;50.150;8.568;2023-07-24T08:07:47;22.90;99.10
14079;DHT22;7115;50.150;8.568;2023-07-24T08:10:14;22.90;99.10
14079;DHT22;7115;50.150;8.568;2023-07-24T08:12:44;22.90;99.10
14079;DHT22;7115;50.150;8.568;2023-07-24T08:15:11;22.90;99.10
14079;DHT22;7115;50.150;8.568;2023-07-24T08:17:38;22.90;99.20
14079;DHT22;7115;50.150;8.568;2023-07-24T08:20:07;22.80;99.20
14079;DHT22;7115;50.150;8.568;2023-07-24T08:22:34;22.90;99.20
14079;DHT22;7115;50.150;8.568;2023-07-24T08:25:01;22.90;99.20
14079;DHT22;7115;50.150;8.568;2023-07-24T08:27:28;23.00;99.20
14079;DHT22;7115;50.150;8.568;2023-07-24T08:29:55;23.00;99.20
14079;DHT22;7115;50.150;8.568;2023-07-24T08:32:22;23.10;99.10
14079;DHT22;7115;50.150;8.568;2023-07-24T08:34:49;23.00;99.00
14079;DHT22;7115;50.150;8.568;2023-07-24T08:37:17;23.10;99.10
14079;DHT22;7115;50.150;8.568;2023-07-24T08:39:44;23.10;99.00
14079;DHT22;7115;50.150;8.568;2023-07-24T08:42:11;23.10;99.00
14079;DHT22;7115;50.150;8.568;2023-07-24T08:44:38;23.10;98.90
14079;DHT22;7115;50.150;8.568;2023-07-24T08:47:09;23.20;98.90
14079;DHT22;7115;50.150;8.568;2023-07-24T08:49:37;23.30;98.80
14079;DHT22;7115;50.150;8.568;2023-07-24T08:52:05;23.40;99.00
14079;DHT22;7115;50.150;8.568;2023-07-24T08:54:35;23.40;98.60
14079;DHT22;7115;50.150;8.568;2023-07-24T08:57:05;23.60;98.40
14079;DHT22;7115;50.150;8.568;2023-07-24T08:59:33;23.70;98.20
14079;DHT22;7115;50.150;8.568;2023-07-24T09:02:00;23.70;98.00
14079;DHT22;7115;50.150;8.568;2023-07-24T09:04:27;23.80;97.90
14079;DHT22;7115;50.150;8.568;2023-07-24T09:06:56;23.90;97.60
14079;DHT22;7115;50.150;8.568;2023-07-24T09:09:28;24.00;97.40
14079;DHT22;7115;50.150;8.568;2023-07-24T09:11:56;24.20;97.30
14079;DHT22;7115;50.150;8.568;2023-07-24T09:14:26;24.40;97.20
14079;DHT22;7115;50.150;8.568;2023-07-24T09:17:04;24.60;97.00
14079;DHT22;7115;50.150;8.568;2023-07-24T09:19:33;24.90;96.60
14079;DHT22;7115;50.150;8.568;2023-07-24T09:22:10;25.00;96.20
14079;DHT22;7115;50.150;8.568;2023-07-24T09:24:37;25.00;95.90
14079;DHT22;7115;50.150;8.568;2023-07-24T09:27:06;24.90;95.80
14079;DHT22;7115;50.150;8.568;2023-07-24T09:29:34;24.80;95.80
14079;DHT22;7115;50.150;8.568;2023-07-24T09:32:02;24.80;95.80
14079;DHT22;7115;50.150;8.568;2023-07-24T09:34:29;24.70;95.80
14079;DHT22;7115;50.150;8.568;2023-07-24T09:36:56;24.70;95.80
14079;DHT22;7115;50.150;8.568;2023-07-24T09:39:23;24.50;95.80
14079;DHT22;7115;50.150;8.568;2023-07-24T09:41:50;24.40;96.00
14079;DHT22;7115;50.150;8.568;2023-07-24T09:44:19;24.40;96.20
14079;DHT22;7115;50.150;8.568;2023-07-24T09:46:46;24.50;96.30
14079;DHT22;7115;50.150;8.568;2023-07-24T09:49:33;24.50;96.40
14079;DHT22;7115;50.150;8.568;2023-07-24T09:52:06;24.60;96.30
14079;DHT22;7115;50.150;8.568;2023-07-24T09:54:39;24.70;96.20
14079;DHT22;7115;50.150;8.568;2023-07-24T09:57:13;24.80;96.20
14079;DHT22;7115;50.150;8.568;2023-07-24T09:59:49;24.90;96.00
14079;DHT22;7115;50.150;8.568;2023-07-24T10:02:18;25.00;95.80
14079;DHT22;7115;50.150;8.568;2023-07-24T10:04:45;25.10;95.80
14079;DHT22;7115;50.150;8.568;2023-07-24T10:07:13;25.10;95.60
14079;DHT22;7115;50.150;8.568;2023-07-24T10:09:43;25.10;95.50
14079;DHT22;7115;50.150;8.568;2023-07-24T10:12:10;25.00;95.40
14079;DHT22;7115;50.150;8.568;2023-07-24T10:14:37;25.10;95.30
14079;DHT22;7115;50.150;8.568;2023-07-24T10:17:06;25.10;95.30
14079;DHT22;7115;50.150;8.568;2023-07-24T10:19:36;25.10;95.20
14079;DHT22;7115;50.150;8.568;2023-07-24T10:22:05;25.10;95.10
14079;DHT22;7115;50.150;8.568;2023-07-24T10:24:33;25.00;94.90
14079;DHT22;7115;50.150;8.568;2023-07-24T10:27:08;24.90;94.80
14079;DHT22;7115;50.150;8.568;2023-07-24T10:29:35;24.90;94.80
14079;DHT22;7115;50.150;8.568;2023-07-24T10:32:03;24.90;94.80
14079;DHT22;7115;50.150;8.568;2023-07-24T10:34:39;24.90;94.80
14079;DHT22;7115;50.150;8.568;2023-07-24T10:37:07;25.00;94.70
14079;DHT22;7115;50.150;8.568;2023-07-24T10:39:37;25.10;94.60
14079;DHT22;7115;50.150;8.568;2023-07-24T10:42:07;25.30;94.40
14079;DHT22;7115;50.150;8.568;2023-07-24T10:44:35;25.40;94.10
14079;DHT22;7115;50.150;8.568;2023-07-24T10:47:02;25.40;93.50
14079;DHT22;7115;50.150;8.568;2023-07-24T10:49:29;25.50;93.00
14079;DHT22;7115;50.150;8.568;2023-07-24T10:51:57;25.50;92.60
14079;DHT22;7115;50.150;8.568;2023-07-24T10:54:25;25.50;92.20
14079;DHT22;7115;50.150;8.568;2023-07-24T10:56:57;25.50;92.10
14079;DHT22;7115;50.150;8.568;2023-07-24T10:59:36;25.60;92.00
14079;DHT22;7115;50.150;8.568;2023-07-24T11:02:03;25.60;91.70
14079;DHT22;7115;50.150;8.568;2023-07-24T11:04:31;25.60;91.50
14079;DHT22;7115;50.150;8.568;2023-07-24T11:07:00;25.60;91.30
14079;DHT22;7115;50.150;8.568;2023-07-24T11:09:34;25.60;91.20
14079;DHT22;7115;50.150;8.568;2023-07-24T11:12:10;25.60;91.00
14079;DHT22;7115;50.150;8.568;2023-07-24T11:14:48;25.60;91.00
14079;DHT22;7115;50.150;8.568;2023-07-24T11:17:16;25.50;91.00
14079;DHT22;7115;50.150;8.568;2023-07-24T11:19:43;25.50;91.10
14079;DHT22;7115;50.150;8.568;2023-07-24T11:22:11;25.60;91.20
14079;DHT22;7115;50.150;8.568;2023-07-24T11:24:46;25.60;91.30
14079;DHT22;7115;50.150;8.568;2023-07-24T11:27:13;25.50;91.30
14079;DHT22;7115;50.150;8.568;2023-07-24T11:29:41;25.50;91.20
14079;DHT22;7115;50.150;8.568;2023-07-24T11:32:08;25.50;91.10
14079;DHT22;7115;50.150;8.568;2023-07-24T11:34:35;25.50;91.20
14079;DHT22;7115;50.150;8.568;2023-07-24T11:37:03;25.50;91.40
14079;DHT22;7115;50.150;8.568;2023-07-24T11:39:32;25.50;91.70
14079;DHT22;7115;50.150;8.568;2023-07-24T11:42:00;25.40;91.90
14079;DHT22;7115;50.150;8.568;2023-07-24T11:44:28;25.40;92.10
14079;DHT22;7115;50.150;8.568;2023-07-24T11:47:01;25.40;92.10
14079;DHT22;7115;50.150;8.568;2023-07-24T11:49:28;25.50;91.90
14079;DHT22;7115;50.150;8.568;2023-07-24T11:52:01;25.50;91.80
14079;DHT22;7115;50.150;8.568;2023-07-24T11:54:29;25.60;91.50
14079;DHT22;7115;50.150;8.568;2023-07-24T11:56:57;25.60;91.40
14079;DHT22;7115;50.150;8.568;2023-07-24T11:59:24;25.60;91.00
14079;DHT22;7115;50.150;8.568;2023-07-24T12:01:51;25.60;91.10
14079;DHT22;7115;50.150;8.568;2023-07-24T12:04:19;25.60;91.00
14079;DHT22;7115;50.150;8.568;2023-07-24T12:06:47;25.70;91.00
14079;DHT22;7115;50.150;8.568;2023-07-24T12:09:13;25.80;90.90
14079;DHT22;7115;50.150;8.568;2023-07-24T12:11:41;25.90;91.30
14079;DHT22;7115;50.150;8.568;2023-07-24T12:14:13;25.90;91.00
14079;DHT22;7115;50.150;8.568;2023-07-24T12:16:40;26.00;91.00
14079;DHT22;7115;50.150;8.568;2023-07-24T12:19:06;26.00;91.00
14079;DHT22;7115;50.150;8.568;2023-07-24T12:21:33;26.00;91.00
14079;DHT22;7115;50.150;8.568;2023-07-24T12:24:00;26.10;90.90
14079;DHT22;7115;50.150;8.568;2023-07-24T12:26:27;26.30;90.90
14079;DHT22;7115;50.150;8.568;2023-07-24T12:28:54;26.40;90.70
14079;DHT22;7115;50.150;8.568;2023-07-24T12:31:23;26.40;90.70
14079;DHT22;7115;50.150;8.568;2023-07-24T12:33:49;26.30;90.60
14079;DHT22;7115;50.150;8.568;2023-07-24T12:36:16;26.30;90.70
14079;DHT22;7115;50.150;8.568;2023-07-24T12:38:43;26.30;90.70
14079;DHT22;7115;50.150;8.568;2023-07-24T12:41:10;26.50;90.70
14079;DHT22;7115;50.150;8.568;2023-07-24T12:43:37;26.70;90.50
14079;DHT22;7115;50.150;8.568;2023-07-24T12:46:04;26.80;90.20
14079;DHT22;7115;50.150;8.568;2023-07-24T12:48:32;26.90;90.10
14079;DHT22;7115;50.150;8.568;2023-07-24T12:50:59;26.90;90.10
14079;DHT22;7115;50.150;8.568;2023-07-24T12:53:27;26.80;90.00
14079;DHT22;7115;50.150;8.568;2023-07-24T12:56:14;26.70;90.00
14079;DHT22;7115;50.150;8.568;2023-07-24T12:58:41;26.60;90.00
14079;DHT22;7115;50.150;8.568;2023-07-24T13:01:08;26.40;90.00
14079;DHT22;7115;50.150;8.568;2023-07-24T13:03:36;26.30;90.10
14079;DHT22;7115;50.150;8.568;2023-07-24T13:06:03;26.20;90.20
14079;DHT22;7115;50.150;8.568;2023-07-24T13:08:30;26.10;90.30
14079;DHT22;7115;50.150;8.568;2023-07-24T13:10:57;26.00;90.30
14079;DHT22;7115;50.150;8.568;2023-07-24T13:13:24;26.00;90.40
14079;DHT22;7115;50.150;8.568;2023-07-24T13:15:51;25.90;90.50
14079;DHT22;7115;50.150;8.568;2023-07-24T13:18:18;26.00;90.50
14079;DHT22;7115;50.150;8.568;2023-07-24T13:20:56;26.00;90.50
14079;DHT22;7115;50.150;8.568;2023-07-24T13:23:23;26.20;90.50
14079;DHT22;7115;50.150;8.568;2023-07-24T13:25:51;26.30;90.40
14079;DHT22;7115;50.150;8.568;2023-07-24T13:28:18;26.60;90.40
14079;DHT22;7115;50.150;8.568;2023-07-24T13:30:46;26.70;90.20
14079;DHT22;7115;50.150;8.568;2023-07-24T13:33:13;26.80;90.10
14079;DHT22;7115;50.150;8.568;2023-07-24T13:35:40;26.90;90.00
14079;DHT22;7115;50.150;8.568;2023-07-24T13:38:09;26.80;89.90
14079;DHT22;7115;50.150;8.568;2023-07-24T13:40:36;26.80;90.00
14079;DHT22;7115;50.150;8.568;2023-07-24T13:43:03;26.90;90.00
14079;DHT22;7115;50.150;8.568;2023-07-24T13:45:31;26.90;90.00
14079;DHT22;7115;50.150;8.568;2023-07-24T13:47:58;27.00;90.00
14079;DHT22;7115;50.150;8.568;2023-07-24T13:50:25;27.00;89.90
14079;DHT22;7115;50.150;8.568;2023-07-24T13:52:52;27.00;89.90
14079;DHT22;7115;50.150;8.568;2023-07-24T13:55:20;26.90;90.00
14079;DHT22;7115;50.150;8.568;2023-07-24T13:57:48;26.80;90.00
14079;DHT22;7115;50.150;8.568;2023-07-24T14:00:15;26.70;90.10
14079;DHT22;7115;50.150;8.568;2023-07-24T14:02:42;26.50;90.30
14079;DHT22;7115;50.150;8.568;2023-07-24T14:05:09;26.30;91.10
14079;DHT22;7115;50.150;8.568;2023-07-24T14:07:36;26.00;92.00
14079;DHT22;7115;50.150;8.568;2023-07-24T14:10:04;25.80;92.90
14079;DHT22;7115;50.150;8.568;2023-07-24T14:12:32;25.60;93.50
14079;DHT22;7115;50.150;8.568;2023-07-24T14:14:59;25.50;94.00
14079;DHT22;7115;50.150;8.568;2023-07-24T14:17:26;25.30;94.20
14079;DHT22;7115;50.150;8.568;2023-07-24T14:19:53;25.40;94.50
14079;DHT22;7115;50.150;8.568;2023-07-24T14:22:20;25.40;94.80
14079;DHT22;7115;50.150;8.568;2023-07-24T14:24:47;25.40;94.90
14079;DHT22;7115;50.150;8.568;2023-07-24T14:27:14;25.50;95.00
14079;DHT22;7115;50.150;8.568;2023-07-24T14:29:42;25.50;94.90
14079;DHT22;7115;50.150;8.568;2023-07-24T14:32:09;25.60;94.80
14079;DHT22;7115;50.150;8.568;2023-07-24T14:34:36;25.70;94.70
14079;DHT22;7115;50.150;8.568;2023-07-24T14:37:03;25.80;94.60
14079;DHT22;7115;50.150;8.568;2023-07-24T14:39:30;25.90;94.50
14079;DHT22;7115;50.150;8.568;2023-07-24T14:41:57;26.00;94.40
14079;DHT22;7115;50.150;8.568;2023-07-24T14:44:25;26.00;94.30
14079;DHT22;7115;50.150;8.568;2023-07-24T14:46:53;25.90;94.20
14079;DHT22;7115;50.150;8.568;2023-07-24T14:49:20;25.70;94.30
14079;DHT22;7115;50.150;8.568;2023-07-24T14:51:47;25.60;94.40
14079;DHT22;7115;50.150;8.568;2023-07-24T14:54:13;25.70;94.50
14079;DHT22;7115;50.150;8.568;2023-07-24T14:56:40;25.60;94.50
14079;DHT22;7115;50.150;8.568;2023-07-24T14:59:20;25.60;94.60
14079;DHT22;7115;50.150;8.568;2023-07-24T15:01:47;25.60;94.80
14079;DHT22;7115;50.150;8.568;2023-07-24T15:04:16;25.60;95.20
14079;DHT22;7115;50.150;8.568;2023-07-24T15:06:43;25.60;95.50
14079;DHT22;7115;50.150;8.568;2023-07-24T15:09:10;25.60;95.70
14079;DHT22;7115;50.150;8.568;2023-07-24T15:11:38;25.70;95.80
14079;DHT22;7115;50.150;8.568;2023-07-24T15:14:05;25.90;95.80
14079;DHT22;7115;50.150;8.568;2023-07-24T15:16:31;25.90;95.40
14079;DHT22;7115;50.150;8.568;2023-07-24T15:18:58;26.00;95.00
14079;DHT22;7115;50.150;8.568;2023-07-24T15:21:27;25.90;94.70
14079;DHT22;7115;50.150;8.568;2023-07-24T15:23:54;25.90;94.70
14079;DHT22;7115;50.150;8.568;2023-07-24T15:26:21;25.90;94.70
14079;DHT22;7115;50.150;8.568;2023-07-24T15:28:48;26.00;94.50
14079;DHT22;7115;50.150;8.568;2023-07-24T15:31:15;26.10;94.30
14079;DHT22;7115;50.150;8.568;2023-07-24T15:33:42;26.10;94.20
14079;DHT22;7115;50.150;8.568;2023-07-24T15:36:09;26.00;94.10
14079;DHT22;7115;50.150;8.568;2023-07-24T15:38:37;25.90;93.90
14079;DHT22;7115;50.150;8.568;2023-07-24T15:41:04;25.90;93.60
14079;DHT22;7115;50.150;8.568;2023-07-24T15:43:31;25.70;93.20
14079;DHT22;7115;50.150;8.568;2023-07-24T15:45:58;25.60;93.00
14079;DHT22;7115;50.150;8.568;2023-07-24T15:48:25;25.50;92.60